createdAt,value
2023-02-11T00:02:55.080Z,3.68
2023-02-11T00:12:58.791Z,3.66
2023-02-11T00:23:03.574Z,3.64
2023-02-11T00:33:07.538Z,3.60
2023-02-11T00:43:13.843Z,3.55
2023-02-11T00:53:17.518Z,3.49
2023-02-11T01:03:22.841Z,3.59
2023-02-11T01:13:27.971Z,3.68
2023-02-11T01:23:31.699Z,3.72
2023-02-11T01:33:36.820Z,3.68
2023-02-11T01:43:46.577Z,3.72
2023-02-11T01:54:10.183Z,3.79
2023-02-11T02:04:20.321Z,3.74
2023-02-11T02:14:23.953Z,3.77
2023-02-11T02:25:07.870Z,3.75
2023-02-11T02:35:26.710Z,3.65
2023-02-11T02:45:34.943Z,3.59
2023-02-11T02:55:52.223Z,3.52
2023-02-11T03:06:09.299Z,3.62
2023-02-11T03:16:23.201Z,3.62
2023-02-11T03:26:35.310Z,3.64
2023-02-11T03:36:53.158Z,3.61
2023-02-11T03:46:57.000Z,3.61
2023-02-11T03:57:02.980Z,3.45
2023-02-11T04:07:08.306Z,3.37
2023-02-11T04:17:13.482Z,3.20
2023-02-11T04:27:17.241Z,3.15
2023-02-11T04:37:20.883Z,3.15
2023-02-11T04:47:24.512Z,3.20
2023-02-11T04:57:30.232Z,3.14
2023-02-11T05:07:34.108Z,3.14
2023-02-11T05:17:37.813Z,3.12
2023-02-11T05:27:43.352Z,3.12
2023-02-11T05:37:47.040Z,2.96
2023-02-11T05:47:50.687Z,2.88
2023-02-11T05:57:54.269Z,2.85
2023-02-11T06:07:58.158Z,2.91
2023-02-11T06:18:01.759Z,2.97
2023-02-11T06:28:07.864Z,2.91
2023-02-11T06:38:13.000Z,2.93
2023-02-11T06:48:16.685Z,2.98
2023-02-11T06:58:23.165Z,3.08
2023-02-11T07:08:26.911Z,3.07
2023-02-11T07:18:30.652Z,3.04
2023-02-11T07:28:35.801Z,3.04
2023-02-11T07:38:41.443Z,3.04
2023-02-11T07:48:45.162Z,3.18
2023-02-11T07:58:49.719Z,3.29
2023-02-11T08:08:56.268Z,3.31
2023-02-11T08:19:04.029Z,3.31
2023-02-11T08:29:12.551Z,3.31
2023-02-11T08:39:20.827Z,3.31
2023-02-11T08:49:25.893Z,3.44
2023-02-11T08:59:29.747Z,3.59
2023-02-11T09:09:35.585Z,3.69
2023-02-11T09:19:39.136Z,3.81
2023-02-11T09:29:44.314Z,3.97
2023-02-11T09:39:48.071Z,4.08
2023-02-11T09:50:14.885Z,4.27
2023-02-11T10:00:20.641Z,4.39
2023-02-11T10:10:36.227Z,4.49
2023-02-11T10:20:51.304Z,4.56
2023-02-11T10:30:58.625Z,4.66
2023-02-11T10:41:02.481Z,4.77
2023-02-11T10:51:12.794Z,4.85
2023-02-11T11:01:24.202Z,4.94
2023-02-11T11:11:28.331Z,5.01
2023-02-11T11:21:44.065Z,5.02
2023-02-11T11:32:05.587Z,5.23
2023-02-11T11:42:26.650Z,5.31
2023-02-11T11:52:46.697Z,5.39
2023-02-11T12:03:12.033Z,5.47
2023-02-11T12:13:29.873Z,5.59
2023-02-11T12:23:52.307Z,5.49
2023-02-11T12:34:18.304Z,5.62
2023-02-11T12:44:31.111Z,5.67
2023-02-11T12:54:49.536Z,5.85
2023-02-11T13:05:05.734Z,6.02
2023-02-11T13:15:15.982Z,5.97
2023-02-11T13:25:31.880Z,6.16
2023-02-11T13:35:36.931Z,6.21
2023-02-11T13:45:45.667Z,6.21
2023-02-11T13:56:05.211Z,6.27
2023-02-11T14:06:27.821Z,6.44
2023-02-11T14:16:38.484Z,6.52
2023-02-11T14:26:53.576Z,6.58
2023-02-11T14:37:29.091Z,6.75
2023-02-11T14:47:43.320Z,6.86
2023-02-11T14:57:49.826Z,7.03
2023-02-11T15:08:05.344Z,6.96
2023-02-11T15:18:23.082Z,7.02
2023-02-11T15:28:31.276Z,6.91
2023-02-11T15:38:35.138Z,6.74
2023-02-11T15:48:45.102Z,6.71
2023-02-11T15:58:50.282Z,6.67
2023-02-11T16:09:08.453Z,6.61
2023-02-11T16:19:19.670Z,6.47
2023-02-11T16:29:26.612Z,6.33
2023-02-11T16:39:33.316Z,6.22
2023-02-11T16:49:41.230Z,5.92
2023-02-11T16:59:46.191Z,5.57
2023-02-11T17:09:50.071Z,5.29
2023-02-11T17:19:55.728Z,5.15
2023-02-11T17:30:01.070Z,4.89
2023-02-11T17:40:05.911Z,4.63
2023-02-11T17:50:11.944Z,4.28
2023-02-11T18:00:16.012Z,3.81
2023-02-11T18:10:23.019Z,3.46
2023-02-11T18:20:26.859Z,3.21
2023-02-11T18:30:30.789Z,3.06
2023-02-11T18:40:40.993Z,3.01
2023-02-11T18:50:47.772Z,2.99
2023-02-11T19:00:53.443Z,2.75
2023-02-11T19:10:57.414Z,2.44
2023-02-11T19:21:13.073Z,2.36
2023-02-11T19:31:16.866Z,2.42
2023-02-11T19:41:23.555Z,2.45
2023-02-11T19:51:31.523Z,2.45
2023-02-11T20:01:37.829Z,2.38
2023-02-11T20:11:42.818Z,2.43
2023-02-11T20:21:53.600Z,2.64
2023-02-11T20:31:58.946Z,2.74
2023-02-11T20:42:04.118Z,2.44
2023-02-11T20:52:08.594Z,2.26
2023-02-11T21:02:13.757Z,2.20
2023-02-11T21:12:17.394Z,2.28
2023-02-11T21:22:21.206Z,2.32
2023-02-11T21:32:25.994Z,2.38
2023-02-11T21:42:29.689Z,2.21
2023-02-11T21:52:35.153Z,1.92
2023-02-11T22:02:40.224Z,1.88
2023-02-11T22:12:44.049Z,1.98
2023-02-11T22:22:49.367Z,2.32
2023-02-11T22:32:53.076Z,2.23
2023-02-11T22:42:56.761Z,1.98
2023-02-11T22:53:00.492Z,1.70
2023-02-11T23:03:04.738Z,1.87
2023-02-11T23:13:10.678Z,1.94
2023-02-11T23:23:16.342Z,1.89
2023-02-11T23:33:20.004Z,2.07
2023-02-11T23:43:24.887Z,1.97
2023-02-11T23:53:28.697Z,2.00
